<?xml version="1.0" encoding="UTF-8" standalone="no" ?>
<gpx xmlns="http://www.topografix.com/GPX/1/1" xmlns:xsi="http://www.w3.org/2001/XMLSchema-instance" xsi:schemaLocation="http://www.topografix.com/GPX/1/1 http://www.topografix.com/GPX/1/1/gpx.xsd" version="1.1" creator="VisuGPX - https://www.visugpx.com">
  <metadata>
    <name>Bois de Pau</name>
    <desc><![CDATA[Une petite randonnée de 7km sur du plat et toujours à l\'ombre. A faire un jour de grand soleil, et en groupe, pour plus de sécurité.]]></desc>
  </metadata>
  <trk>
    <name><![CDATA[Tracé actuel: 24 JUIL 2012 14:14]]></name>
    <trkseg>
      <trkpt lat="43.33532" lon="-0.36375">
        <ele>210.19</ele>
        <time>2012-07-24T12:14:28Z</time>
      </trkpt>
      <trkpt lat="43.33529" lon="-0.36364">
        <ele>210.67</ele>
        <time>2012-07-24T12:14:51Z</time>
      </trkpt>
      <trkpt lat="43.33535" lon="-0.36353">
        <ele>213.07</ele>
        <time>2012-07-24T12:15:00Z</time>
      </trkpt>
      <trkpt lat="43.33555" lon="-0.36342">
        <ele>214.51</ele>
        <time>2012-07-24T12:15:25Z</time>
      </trkpt>
      <trkpt lat="43.33584" lon="-0.36325">
        <ele>215.47</ele>
        <time>2012-07-24T12:15:50Z</time>
      </trkpt>
      <trkpt lat="43.33605" lon="-0.36308">
        <ele>215.47</ele>
        <time>2012-07-24T12:16:06Z</time>
      </trkpt>
      <trkpt lat="43.33614" lon="-0.36303">
        <ele>215.95</ele>
        <time>2012-07-24T12:16:13Z</time>
      </trkpt>
      <trkpt lat="43.33624" lon="-0.36297">
        <ele>215.95</ele>
        <time>2012-07-24T12:16:21Z</time>
      </trkpt>
      <trkpt lat="43.33636" lon="-0.36291">
        <ele>215.47</ele>
        <time>2012-07-24T12:16:30Z</time>
      </trkpt>
      <trkpt lat="43.33645" lon="-0.36286">
        <ele>214.99</ele>
        <time>2012-07-24T12:16:39Z</time>
      </trkpt>
      <trkpt lat="43.33671" lon="-0.36277">
        <ele>214.51</ele>
        <time>2012-07-24T12:17:00Z</time>
      </trkpt>
      <trkpt lat="43.33685" lon="-0.36264">
        <ele>214.03</ele>
        <time>2012-07-24T12:17:08Z</time>
      </trkpt>
      <trkpt lat="43.33702" lon="-0.36156">
        <ele>208.74</ele>
        <time>2012-07-24T12:20:38Z</time>
      </trkpt>
      <trkpt lat="43.33701" lon="-0.36142">
        <ele>208.26</ele>
        <time>2012-07-24T12:20:47Z</time>
      </trkpt>
      <trkpt lat="43.33701" lon="-0.36128">
        <ele>208.26</ele>
        <time>2012-07-24T12:20:54Z</time>
      </trkpt>
      <trkpt lat="43.33699" lon="-0.36114">
        <ele>208.26</ele>
        <time>2012-07-24T12:21:02Z</time>
      </trkpt>
      <trkpt lat="43.33695" lon="-0.36105">
        <ele>208.74</ele>
        <time>2012-07-24T12:21:15Z</time>
      </trkpt>
      <trkpt lat="43.33686" lon="-0.361">
        <ele>208.74</ele>
        <time>2012-07-24T12:21:26Z</time>
      </trkpt>
      <trkpt lat="43.33675" lon="-0.36096">
        <ele>209.22</ele>
        <time>2012-07-24T12:21:36Z</time>
      </trkpt>
      <trkpt lat="43.33665" lon="-0.36079">
        <ele>209.22</ele>
        <time>2012-07-24T12:21:45Z</time>
      </trkpt>
      <trkpt lat="43.33659" lon="-0.36066">
        <ele>209.7</ele>
        <time>2012-07-24T12:21:55Z</time>
      </trkpt>
      <trkpt lat="43.33652" lon="-0.36049">
        <ele>210.19</ele>
        <time>2012-07-24T12:22:05Z</time>
      </trkpt>
      <trkpt lat="43.33651" lon="-0.36035">
        <ele>210.19</ele>
        <time>2012-07-24T12:22:13Z</time>
      </trkpt>
      <trkpt lat="43.33643" lon="-0.36023">
        <ele>210.19</ele>
        <time>2012-07-24T12:22:23Z</time>
      </trkpt>
      <trkpt lat="43.33638" lon="-0.36012">
        <ele>210.67</ele>
        <time>2012-07-24T12:22:31Z</time>
      </trkpt>
      <trkpt lat="43.33636" lon="-0.35999">
        <ele>210.67</ele>
        <time>2012-07-24T12:22:41Z</time>
      </trkpt>
      <trkpt lat="43.33618" lon="-0.35973">
        <ele>211.15</ele>
        <time>2012-07-24T12:23:12Z</time>
      </trkpt>
      <trkpt lat="43.3361" lon="-0.35967">
        <ele>211.15</ele>
        <time>2012-07-24T12:23:23Z</time>
      </trkpt>
      <trkpt lat="43.33603" lon="-0.35959">
        <ele>211.15</ele>
        <time>2012-07-24T12:23:34Z</time>
      </trkpt>
      <trkpt lat="43.33599" lon="-0.35948">
        <ele>211.15</ele>
        <time>2012-07-24T12:23:43Z</time>
      </trkpt>
      <trkpt lat="43.33595" lon="-0.35936">
        <ele>211.63</ele>
        <time>2012-07-24T12:23:49Z</time>
      </trkpt>
      <trkpt lat="43.33591" lon="-0.35925">
        <ele>211.63</ele>
        <time>2012-07-24T12:23:55Z</time>
      </trkpt>
      <trkpt lat="43.33588" lon="-0.35918">
        <ele>212.11</ele>
        <time>2012-07-24T12:24:06Z</time>
      </trkpt>
      <trkpt lat="43.3358" lon="-0.35909">
        <ele>212.11</ele>
        <time>2012-07-24T12:24:18Z</time>
      </trkpt>
      <trkpt lat="43.33573" lon="-0.35899">
        <ele>212.59</ele>
        <time>2012-07-24T12:24:25Z</time>
      </trkpt>
      <trkpt lat="43.33566" lon="-0.35893">
        <ele>212.59</ele>
        <time>2012-07-24T12:24:34Z</time>
      </trkpt>
      <trkpt lat="43.3356" lon="-0.35884">
        <ele>212.59</ele>
        <time>2012-07-24T12:24:43Z</time>
      </trkpt>
      <trkpt lat="43.33548" lon="-0.35872">
        <ele>212.59</ele>
        <time>2012-07-24T12:24:54Z</time>
      </trkpt>
      <trkpt lat="43.3354" lon="-0.35863">
        <ele>212.11</ele>
        <time>2012-07-24T12:25:06Z</time>
      </trkpt>
      <trkpt lat="43.3354" lon="-0.35851">
        <ele>212.11</ele>
        <time>2012-07-24T12:25:15Z</time>
      </trkpt>
      <trkpt lat="43.33533" lon="-0.35843">
        <ele>212.11</ele>
        <time>2012-07-24T12:25:23Z</time>
      </trkpt>
      <trkpt lat="43.33522" lon="-0.3584">
        <ele>212.59</ele>
        <time>2012-07-24T12:25:32Z</time>
      </trkpt>
      <trkpt lat="43.33513" lon="-0.35842">
        <ele>212.11</ele>
        <time>2012-07-24T12:25:42Z</time>
      </trkpt>
      <trkpt lat="43.33505" lon="-0.35842">
        <ele>212.59</ele>
        <time>2012-07-24T12:25:56Z</time>
      </trkpt>
      <trkpt lat="43.33498" lon="-0.3582">
        <ele>212.59</ele>
        <time>2012-07-24T12:26:31Z</time>
      </trkpt>
      <trkpt lat="43.33478" lon="-0.35741">
        <ele>212.11</ele>
        <time>2012-07-24T12:27:19Z</time>
      </trkpt>
      <trkpt lat="43.33468" lon="-0.35701">
        <ele>211.63</ele>
        <time>2012-07-24T12:27:33Z</time>
      </trkpt>
      <trkpt lat="43.33461" lon="-0.3569">
        <ele>212.59</ele>
        <time>2012-07-24T12:27:42Z</time>
      </trkpt>
      <trkpt lat="43.33455" lon="-0.35682">
        <ele>212.11</ele>
        <time>2012-07-24T12:27:50Z</time>
      </trkpt>
      <trkpt lat="43.33445" lon="-0.35668">
        <ele>211.63</ele>
        <time>2012-07-24T12:28:18Z</time>
      </trkpt>
      <trkpt lat="43.3344" lon="-0.35638">
        <ele>211.15</ele>
        <time>2012-07-24T12:28:30Z</time>
      </trkpt>
      <trkpt lat="43.33437" lon="-0.35625">
        <ele>210.67</ele>
        <time>2012-07-24T12:28:36Z</time>
      </trkpt>
      <trkpt lat="43.33432" lon="-0.35615">
        <ele>210.67</ele>
        <time>2012-07-24T12:28:43Z</time>
      </trkpt>
      <trkpt lat="43.33429" lon="-0.35596">
        <ele>211.15</ele>
        <time>2012-07-24T12:29:04Z</time>
      </trkpt>
      <trkpt lat="43.33416" lon="-0.35563">
        <ele>210.67</ele>
        <time>2012-07-24T12:29:34Z</time>
      </trkpt>
      <trkpt lat="43.33403" lon="-0.35506">
        <ele>210.67</ele>
        <time>2012-07-24T12:30:19Z</time>
      </trkpt>
      <trkpt lat="43.33381" lon="-0.35477">
        <ele>210.67</ele>
        <time>2012-07-24T12:30:38Z</time>
      </trkpt>
      <trkpt lat="43.33376" lon="-0.35466">
        <ele>210.67</ele>
        <time>2012-07-24T12:30:51Z</time>
      </trkpt>
      <trkpt lat="43.33374" lon="-0.35454">
        <ele>210.67</ele>
        <time>2012-07-24T12:31:02Z</time>
      </trkpt>
      <trkpt lat="43.33372" lon="-0.35418">
        <ele>211.15</ele>
        <time>2012-07-24T12:31:19Z</time>
      </trkpt>
      <trkpt lat="43.33369" lon="-0.35405">
        <ele>210.67</ele>
        <time>2012-07-24T12:31:26Z</time>
      </trkpt>
      <trkpt lat="43.33366" lon="-0.35393">
        <ele>211.15</ele>
        <time>2012-07-24T12:31:32Z</time>
      </trkpt>
      <trkpt lat="43.33358" lon="-0.35388">
        <ele>210.67</ele>
        <time>2012-07-24T12:31:38Z</time>
      </trkpt>
      <trkpt lat="43.33349" lon="-0.35383">
        <ele>210.67</ele>
        <time>2012-07-24T12:31:47Z</time>
      </trkpt>
      <trkpt lat="43.33344" lon="-0.35371">
        <ele>210.67</ele>
        <time>2012-07-24T12:31:56Z</time>
      </trkpt>
      <trkpt lat="43.33345" lon="-0.3536">
        <ele>210.19</ele>
        <time>2012-07-24T12:32:16Z</time>
      </trkpt>
      <trkpt lat="43.3334" lon="-0.35341">
        <ele>210.19</ele>
        <time>2012-07-24T12:32:39Z</time>
      </trkpt>
      <trkpt lat="43.33336" lon="-0.35287">
        <ele>210.19</ele>
        <time>2012-07-24T12:33:10Z</time>
      </trkpt>
      <trkpt lat="43.33335" lon="-0.35275">
        <ele>210.19</ele>
        <time>2012-07-24T12:33:18Z</time>
      </trkpt>
      <trkpt lat="43.33316" lon="-0.35256">
        <ele>209.7</ele>
        <time>2012-07-24T12:34:06Z</time>
      </trkpt>
      <trkpt lat="43.333" lon="-0.35234">
        <ele>210.19</ele>
        <time>2012-07-24T12:34:15Z</time>
      </trkpt>
      <trkpt lat="43.33294" lon="-0.35213">
        <ele>209.7</ele>
        <time>2012-07-24T12:34:24Z</time>
      </trkpt>
      <trkpt lat="43.333" lon="-0.352">
        <ele>209.7</ele>
        <time>2012-07-24T12:34:32Z</time>
      </trkpt>
      <trkpt lat="43.33305" lon="-0.35184">
        <ele>209.7</ele>
        <time>2012-07-24T12:34:50Z</time>
      </trkpt>
      <trkpt lat="43.33301" lon="-0.35154">
        <ele>208.26</ele>
        <time>2012-07-24T12:35:23Z</time>
      </trkpt>
      <trkpt lat="43.33293" lon="-0.35145">
        <ele>208.74</ele>
        <time>2012-07-24T12:35:32Z</time>
      </trkpt>
      <trkpt lat="43.33287" lon="-0.3513">
        <ele>209.22</ele>
        <time>2012-07-24T12:35:42Z</time>
      </trkpt>
      <trkpt lat="43.33294" lon="-0.35116">
        <ele>208.26</ele>
        <time>2012-07-24T12:35:53Z</time>
      </trkpt>
      <trkpt lat="43.33294" lon="-0.35103">
        <ele>208.74</ele>
        <time>2012-07-24T12:36:00Z</time>
      </trkpt>
      <trkpt lat="43.33289" lon="-0.35082">
        <ele>208.26</ele>
        <time>2012-07-24T12:36:18Z</time>
      </trkpt>
      <trkpt lat="43.33284" lon="-0.35072">
        <ele>208.26</ele>
        <time>2012-07-24T12:36:26Z</time>
      </trkpt>
      <trkpt lat="43.3328" lon="-0.35061">
        <ele>208.26</ele>
        <time>2012-07-24T12:36:33Z</time>
      </trkpt>
      <trkpt lat="43.33276" lon="-0.3505">
        <ele>208.26</ele>
        <time>2012-07-24T12:36:40Z</time>
      </trkpt>
      <trkpt lat="43.33274" lon="-0.35038">
        <ele>207.78</ele>
        <time>2012-07-24T12:36:54Z</time>
      </trkpt>
      <trkpt lat="43.33265" lon="-0.35003">
        <ele>208.26</ele>
        <time>2012-07-24T12:37:38Z</time>
      </trkpt>
      <trkpt lat="43.33245" lon="-0.34989">
        <ele>208.26</ele>
        <time>2012-07-24T12:37:49Z</time>
      </trkpt>
      <trkpt lat="43.33229" lon="-0.3498">
        <ele>208.26</ele>
        <time>2012-07-24T12:37:58Z</time>
      </trkpt>
      <trkpt lat="43.33217" lon="-0.34974">
        <ele>208.74</ele>
        <time>2012-07-24T12:38:08Z</time>
      </trkpt>
      <trkpt lat="43.33218" lon="-0.34961">
        <ele>208.74</ele>
        <time>2012-07-24T12:38:20Z</time>
      </trkpt>
      <trkpt lat="43.33209" lon="-0.34923">
        <ele>208.74</ele>
        <time>2012-07-24T12:38:56Z</time>
      </trkpt>
      <trkpt lat="43.33206" lon="-0.3491">
        <ele>208.74</ele>
        <time>2012-07-24T12:39:05Z</time>
      </trkpt>
      <trkpt lat="43.33209" lon="-0.34893">
        <ele>208.26</ele>
        <time>2012-07-24T12:39:59Z</time>
      </trkpt>
      <trkpt lat="43.33204" lon="-0.34905">
        <ele>208.74</ele>
        <time>2012-07-24T12:40:10Z</time>
      </trkpt>
      <trkpt lat="43.332" lon="-0.34917">
        <ele>208.74</ele>
        <time>2012-07-24T12:40:21Z</time>
      </trkpt>
      <trkpt lat="43.33196" lon="-0.34929">
        <ele>208.26</ele>
        <time>2012-07-24T12:40:32Z</time>
      </trkpt>
      <trkpt lat="43.33085" lon="-0.34661">
        <ele>209.22</ele>
        <time>2012-07-24T12:51:36Z</time>
      </trkpt>
      <trkpt lat="43.33094" lon="-0.34655">
        <ele>208.74</ele>
        <time>2012-07-24T12:51:39Z</time>
      </trkpt>
      <trkpt lat="43.33102" lon="-0.3465">
        <ele>208.74</ele>
        <time>2012-07-24T12:51:42Z</time>
      </trkpt>
      <trkpt lat="43.33111" lon="-0.34644">
        <ele>209.22</ele>
        <time>2012-07-24T12:51:45Z</time>
      </trkpt>
      <trkpt lat="43.33122" lon="-0.34645">
        <ele>209.22</ele>
        <time>2012-07-24T12:51:49Z</time>
      </trkpt>
      <trkpt lat="43.33133" lon="-0.34641">
        <ele>208.74</ele>
        <time>2012-07-24T12:51:54Z</time>
      </trkpt>
      <trkpt lat="43.33146" lon="-0.34637">
        <ele>208.74</ele>
        <time>2012-07-24T12:52:01Z</time>
      </trkpt>
      <trkpt lat="43.33156" lon="-0.34634">
        <ele>208.74</ele>
        <time>2012-07-24T12:52:09Z</time>
      </trkpt>
      <trkpt lat="43.33163" lon="-0.34632">
        <ele>207.78</ele>
        <time>2012-07-24T12:52:28Z</time>
      </trkpt>
      <trkpt lat="43.33172" lon="-0.34626">
        <ele>207.3</ele>
        <time>2012-07-24T12:52:39Z</time>
      </trkpt>
      <trkpt lat="43.33218" lon="-0.34608">
        <ele>207.3</ele>
        <time>2012-07-24T12:52:56Z</time>
      </trkpt>
      <trkpt lat="43.33224" lon="-0.34612">
        <ele>207.3</ele>
        <time>2012-07-24T12:53:12Z</time>
      </trkpt>
      <trkpt lat="43.33233" lon="-0.34614">
        <ele>207.3</ele>
        <time>2012-07-24T12:53:19Z</time>
      </trkpt>
      <trkpt lat="43.33238" lon="-0.34604">
        <ele>206.82</ele>
        <time>2012-07-24T12:53:30Z</time>
      </trkpt>
      <trkpt lat="43.33241" lon="-0.34592">
        <ele>207.78</ele>
        <time>2012-07-24T12:53:49Z</time>
      </trkpt>
      <trkpt lat="43.33255" lon="-0.34586">
        <ele>207.3</ele>
        <time>2012-07-24T12:53:58Z</time>
      </trkpt>
      <trkpt lat="43.33264" lon="-0.34577">
        <ele>207.78</ele>
        <time>2012-07-24T12:54:06Z</time>
      </trkpt>
      <trkpt lat="43.33264" lon="-0.34574">
        <ele>208.26</ele>
        <time>2012-07-24T12:54:22Z</time>
      </trkpt>
      <trkpt lat="43.3326" lon="-0.34573">
        <ele>208.26</ele>
        <time>2012-07-24T12:54:34Z</time>
      </trkpt>
      <trkpt lat="43.33266" lon="-0.34579">
        <ele>207.78</ele>
        <time>2012-07-24T12:54:55Z</time>
      </trkpt>
      <trkpt lat="43.33269" lon="-0.34592">
        <ele>208.26</ele>
        <time>2012-07-24T12:55:04Z</time>
      </trkpt>
      <trkpt lat="43.33277" lon="-0.34578">
        <ele>207.78</ele>
        <time>2012-07-24T12:55:12Z</time>
      </trkpt>
      <trkpt lat="43.33285" lon="-0.34568">
        <ele>207.78</ele>
        <time>2012-07-24T12:55:24Z</time>
      </trkpt>
      <trkpt lat="43.33293" lon="-0.34559">
        <ele>208.74</ele>
        <time>2012-07-24T12:55:31Z</time>
      </trkpt>
      <trkpt lat="43.33301" lon="-0.34555">
        <ele>209.22</ele>
        <time>2012-07-24T12:55:41Z</time>
      </trkpt>
      <trkpt lat="43.33336" lon="-0.3454">
        <ele>210.19</ele>
        <time>2012-07-24T12:56:20Z</time>
      </trkpt>
      <trkpt lat="43.33356" lon="-0.3453">
        <ele>210.67</ele>
        <time>2012-07-24T12:56:38Z</time>
      </trkpt>
      <trkpt lat="43.33368" lon="-0.34524">
        <ele>210.67</ele>
        <time>2012-07-24T12:56:45Z</time>
      </trkpt>
      <trkpt lat="43.33378" lon="-0.34519">
        <ele>210.67</ele>
        <time>2012-07-24T12:57:00Z</time>
      </trkpt>
      <trkpt lat="43.3339" lon="-0.34517">
        <ele>211.15</ele>
        <time>2012-07-24T12:57:09Z</time>
      </trkpt>
      <trkpt lat="43.33399" lon="-0.34513">
        <ele>210.67</ele>
        <time>2012-07-24T12:57:17Z</time>
      </trkpt>
      <trkpt lat="43.33416" lon="-0.34511">
        <ele>210.67</ele>
        <time>2012-07-24T12:57:34Z</time>
      </trkpt>
      <trkpt lat="43.33425" lon="-0.34509">
        <ele>210.19</ele>
        <time>2012-07-24T12:57:57Z</time>
      </trkpt>
      <trkpt lat="43.33449" lon="-0.34513">
        <ele>209.7</ele>
        <time>2012-07-24T12:58:18Z</time>
      </trkpt>
      <trkpt lat="43.33459" lon="-0.34515">
        <ele>209.7</ele>
        <time>2012-07-24T12:58:26Z</time>
      </trkpt>
      <trkpt lat="43.33476" lon="-0.34517">
        <ele>209.7</ele>
        <time>2012-07-24T12:58:46Z</time>
      </trkpt>
      <trkpt lat="43.33501" lon="-0.3452">
        <ele>210.19</ele>
        <time>2012-07-24T12:59:07Z</time>
      </trkpt>
      <trkpt lat="43.33524" lon="-0.3452">
        <ele>210.19</ele>
        <time>2012-07-24T12:59:24Z</time>
      </trkpt>
      <trkpt lat="43.33532" lon="-0.34527">
        <ele>210.19</ele>
        <time>2012-07-24T12:59:34Z</time>
      </trkpt>
      <trkpt lat="43.33541" lon="-0.34527">
        <ele>210.19</ele>
        <time>2012-07-24T12:59:42Z</time>
      </trkpt>
      <trkpt lat="43.33551" lon="-0.34529">
        <ele>210.67</ele>
        <time>2012-07-24T12:59:54Z</time>
      </trkpt>
      <trkpt lat="43.33561" lon="-0.34526">
        <ele>210.19</ele>
        <time>2012-07-24T13:00:09Z</time>
      </trkpt>
      <trkpt lat="43.33599" lon="-0.34519">
        <ele>210.67</ele>
        <time>2012-07-24T13:00:46Z</time>
      </trkpt>
      <trkpt lat="43.33622" lon="-0.34523">
        <ele>210.19</ele>
        <time>2012-07-24T13:01:21Z</time>
      </trkpt>
      <trkpt lat="43.33652" lon="-0.3452">
        <ele>209.22</ele>
        <time>2012-07-24T13:01:34Z</time>
      </trkpt>
      <trkpt lat="43.33665" lon="-0.34517">
        <ele>209.7</ele>
        <time>2012-07-24T13:01:43Z</time>
      </trkpt>
      <trkpt lat="43.33679" lon="-0.34514">
        <ele>208.74</ele>
        <time>2012-07-24T13:02:01Z</time>
      </trkpt>
      <trkpt lat="43.33694" lon="-0.34523">
        <ele>209.22</ele>
        <time>2012-07-24T13:02:17Z</time>
      </trkpt>
      <trkpt lat="43.33703" lon="-0.34509">
        <ele>208.74</ele>
        <time>2012-07-24T13:03:14Z</time>
      </trkpt>
      <trkpt lat="43.33711" lon="-0.34506">
        <ele>208.74</ele>
        <time>2012-07-24T13:03:37Z</time>
      </trkpt>
      <trkpt lat="43.33709" lon="-0.34526">
        <ele>209.22</ele>
        <time>2012-07-24T13:04:39Z</time>
      </trkpt>
      <trkpt lat="43.33718" lon="-0.34525">
        <ele>209.7</ele>
        <time>2012-07-24T13:04:42Z</time>
      </trkpt>
      <trkpt lat="43.33727" lon="-0.34523">
        <ele>209.22</ele>
        <time>2012-07-24T13:04:46Z</time>
      </trkpt>
      <trkpt lat="43.33732" lon="-0.34517">
        <ele>209.22</ele>
        <time>2012-07-24T13:04:54Z</time>
      </trkpt>
      <trkpt lat="43.33716" lon="-0.34522">
        <ele>209.22</ele>
        <time>2012-07-24T13:05:14Z</time>
      </trkpt>
      <trkpt lat="43.33709" lon="-0.34527">
        <ele>209.7</ele>
        <time>2012-07-24T13:05:28Z</time>
      </trkpt>
      <trkpt lat="43.33704" lon="-0.34531">
        <ele>209.22</ele>
        <time>2012-07-24T13:05:50Z</time>
      </trkpt>
      <trkpt lat="43.33706" lon="-0.34524">
        <ele>209.22</ele>
        <time>2012-07-24T13:07:00Z</time>
      </trkpt>
      <trkpt lat="43.33705" lon="-0.34532">
        <ele>209.7</ele>
        <time>2012-07-24T13:08:44Z</time>
      </trkpt>
      <trkpt lat="43.337" lon="-0.34539">
        <ele>210.19</ele>
        <time>2012-07-24T13:09:31Z</time>
      </trkpt>
      <trkpt lat="43.33702" lon="-0.34535">
        <ele>210.67</ele>
        <time>2012-07-24T13:11:15Z</time>
      </trkpt>
      <trkpt lat="43.33711" lon="-0.34537">
        <ele>210.19</ele>
        <time>2012-07-24T13:11:37Z</time>
      </trkpt>
      <trkpt lat="43.33705" lon="-0.34527">
        <ele>210.19</ele>
        <time>2012-07-24T13:11:56Z</time>
      </trkpt>
      <trkpt lat="43.33712" lon="-0.34524">
        <ele>210.19</ele>
        <time>2012-07-24T13:12:33Z</time>
      </trkpt>
      <trkpt lat="43.33721" lon="-0.34525">
        <ele>210.19</ele>
        <time>2012-07-24T13:12:43Z</time>
      </trkpt>
      <trkpt lat="43.33725" lon="-0.34514">
        <ele>210.19</ele>
        <time>2012-07-24T13:13:08Z</time>
      </trkpt>
      <trkpt lat="43.33735" lon="-0.34514">
        <ele>210.19</ele>
        <time>2012-07-24T13:13:18Z</time>
      </trkpt>
      <trkpt lat="43.33743" lon="-0.3452">
        <ele>210.19</ele>
        <time>2012-07-24T13:13:28Z</time>
      </trkpt>
      <trkpt lat="43.33753" lon="-0.34518">
        <ele>210.19</ele>
        <time>2012-07-24T13:13:41Z</time>
      </trkpt>
      <trkpt lat="43.33766" lon="-0.34517">
        <ele>210.19</ele>
        <time>2012-07-24T13:13:51Z</time>
      </trkpt>
      <trkpt lat="43.33785" lon="-0.34515">
        <ele>209.7</ele>
        <time>2012-07-24T13:14:06Z</time>
      </trkpt>
      <trkpt lat="43.33802" lon="-0.34518">
        <ele>210.19</ele>
        <time>2012-07-24T13:14:16Z</time>
      </trkpt>
      <trkpt lat="43.33815" lon="-0.34516">
        <ele>210.67</ele>
        <time>2012-07-24T13:14:24Z</time>
      </trkpt>
      <trkpt lat="43.33823" lon="-0.34517">
        <ele>210.67</ele>
        <time>2012-07-24T13:14:36Z</time>
      </trkpt>
      <trkpt lat="43.33831" lon="-0.34518">
        <ele>210.67</ele>
        <time>2012-07-24T13:14:55Z</time>
      </trkpt>
      <trkpt lat="43.33838" lon="-0.34523">
        <ele>210.67</ele>
        <time>2012-07-24T13:15:13Z</time>
      </trkpt>
      <trkpt lat="43.33877" lon="-0.34521">
        <ele>209.7</ele>
        <time>2012-07-24T13:15:46Z</time>
      </trkpt>
      <trkpt lat="43.33888" lon="-0.34521">
        <ele>209.22</ele>
        <time>2012-07-24T13:16:00Z</time>
      </trkpt>
      <trkpt lat="43.3392" lon="-0.345">
        <ele>207.78</ele>
        <time>2012-07-24T13:16:27Z</time>
      </trkpt>
      <trkpt lat="43.33926" lon="-0.34489">
        <ele>207.78</ele>
        <time>2012-07-24T13:16:34Z</time>
      </trkpt>
      <trkpt lat="43.33935" lon="-0.34479">
        <ele>207.78</ele>
        <time>2012-07-24T13:16:42Z</time>
      </trkpt>
      <trkpt lat="43.33944" lon="-0.34472">
        <ele>208.26</ele>
        <time>2012-07-24T13:16:49Z</time>
      </trkpt>
      <trkpt lat="43.33952" lon="-0.34466">
        <ele>207.78</ele>
        <time>2012-07-24T13:17:01Z</time>
      </trkpt>
      <trkpt lat="43.33958" lon="-0.34456">
        <ele>208.26</ele>
        <time>2012-07-24T13:17:14Z</time>
      </trkpt>
      <trkpt lat="43.3396" lon="-0.34443">
        <ele>207.78</ele>
        <time>2012-07-24T13:17:24Z</time>
      </trkpt>
      <trkpt lat="43.33966" lon="-0.34433">
        <ele>207.3</ele>
        <time>2012-07-24T13:17:35Z</time>
      </trkpt>
      <trkpt lat="43.33971" lon="-0.34421">
        <ele>207.3</ele>
        <time>2012-07-24T13:17:59Z</time>
      </trkpt>
      <trkpt lat="43.33969" lon="-0.34409">
        <ele>206.82</ele>
        <time>2012-07-24T13:18:08Z</time>
      </trkpt>
      <trkpt lat="43.33967" lon="-0.34398">
        <ele>207.78</ele>
        <time>2012-07-24T13:18:21Z</time>
      </trkpt>
      <trkpt lat="43.33979" lon="-0.34391">
        <ele>207.3</ele>
        <time>2012-07-24T13:18:35Z</time>
      </trkpt>
      <trkpt lat="43.33994" lon="-0.34383">
        <ele>208.74</ele>
        <time>2012-07-24T13:19:04Z</time>
      </trkpt>
      <trkpt lat="43.34033" lon="-0.34369">
        <ele>209.22</ele>
        <time>2012-07-24T13:19:30Z</time>
      </trkpt>
      <trkpt lat="43.34046" lon="-0.34361">
        <ele>209.22</ele>
        <time>2012-07-24T13:19:37Z</time>
      </trkpt>
      <trkpt lat="43.34057" lon="-0.34359">
        <ele>209.7</ele>
        <time>2012-07-24T13:19:44Z</time>
      </trkpt>
      <trkpt lat="43.34066" lon="-0.34355">
        <ele>209.7</ele>
        <time>2012-07-24T13:20:03Z</time>
      </trkpt>
      <trkpt lat="43.34091" lon="-0.3435">
        <ele>211.15</ele>
        <time>2012-07-24T13:20:15Z</time>
      </trkpt>
      <trkpt lat="43.34103" lon="-0.34342">
        <ele>211.63</ele>
        <time>2012-07-24T13:20:53Z</time>
      </trkpt>
      <trkpt lat="43.34105" lon="-0.34329">
        <ele>211.63</ele>
        <time>2012-07-24T13:21:03Z</time>
      </trkpt>
      <trkpt lat="43.34104" lon="-0.34317">
        <ele>212.11</ele>
        <time>2012-07-24T13:21:10Z</time>
      </trkpt>
      <trkpt lat="43.34102" lon="-0.34301">
        <ele>212.11</ele>
        <time>2012-07-24T13:21:20Z</time>
      </trkpt>
      <trkpt lat="43.34111" lon="-0.34285">
        <ele>212.11</ele>
        <time>2012-07-24T13:21:28Z</time>
      </trkpt>
      <trkpt lat="43.34121" lon="-0.34274">
        <ele>212.59</ele>
        <time>2012-07-24T13:21:35Z</time>
      </trkpt>
      <trkpt lat="43.34153" lon="-0.34261">
        <ele>212.59</ele>
        <time>2012-07-24T13:21:42Z</time>
      </trkpt>
      <trkpt lat="43.34163" lon="-0.34252">
        <ele>213.07</ele>
        <time>2012-07-24T13:21:52Z</time>
      </trkpt>
      <trkpt lat="43.34171" lon="-0.34247">
        <ele>212.59</ele>
        <time>2012-07-24T13:21:59Z</time>
      </trkpt>
      <trkpt lat="43.34177" lon="-0.34239">
        <ele>212.59</ele>
        <time>2012-07-24T13:22:07Z</time>
      </trkpt>
      <trkpt lat="43.34184" lon="-0.34229">
        <ele>212.59</ele>
        <time>2012-07-24T13:22:19Z</time>
      </trkpt>
      <trkpt lat="43.34193" lon="-0.34229">
        <ele>212.59</ele>
        <time>2012-07-24T13:22:27Z</time>
      </trkpt>
      <trkpt lat="43.34205" lon="-0.34228">
        <ele>212.11</ele>
        <time>2012-07-24T13:22:34Z</time>
      </trkpt>
      <trkpt lat="43.34216" lon="-0.34226">
        <ele>212.59</ele>
        <time>2012-07-24T13:22:42Z</time>
      </trkpt>
      <trkpt lat="43.34225" lon="-0.34223">
        <ele>212.11</ele>
        <time>2012-07-24T13:22:49Z</time>
      </trkpt>
      <trkpt lat="43.34234" lon="-0.34219">
        <ele>211.63</ele>
        <time>2012-07-24T13:23:00Z</time>
      </trkpt>
      <trkpt lat="43.34245" lon="-0.34215">
        <ele>211.63</ele>
        <time>2012-07-24T13:23:08Z</time>
      </trkpt>
      <trkpt lat="43.34283" lon="-0.3421">
        <ele>211.63</ele>
        <time>2012-07-24T13:23:24Z</time>
      </trkpt>
      <trkpt lat="43.3429" lon="-0.34199">
        <ele>211.15</ele>
        <time>2012-07-24T13:23:34Z</time>
      </trkpt>
      <trkpt lat="43.34288" lon="-0.34186">
        <ele>211.63</ele>
        <time>2012-07-24T13:23:42Z</time>
      </trkpt>
      <trkpt lat="43.343" lon="-0.34171">
        <ele>211.63</ele>
        <time>2012-07-24T13:23:51Z</time>
      </trkpt>
      <trkpt lat="43.34308" lon="-0.34167">
        <ele>211.63</ele>
        <time>2012-07-24T13:24:00Z</time>
      </trkpt>
      <trkpt lat="43.34317" lon="-0.34159">
        <ele>212.59</ele>
        <time>2012-07-24T13:24:07Z</time>
      </trkpt>
      <trkpt lat="43.34321" lon="-0.34147">
        <ele>212.59</ele>
        <time>2012-07-24T13:24:13Z</time>
      </trkpt>
      <trkpt lat="43.34326" lon="-0.34133">
        <ele>212.11</ele>
        <time>2012-07-24T13:24:22Z</time>
      </trkpt>
      <trkpt lat="43.34334" lon="-0.34118">
        <ele>213.07</ele>
        <time>2012-07-24T13:24:31Z</time>
      </trkpt>
      <trkpt lat="43.3434" lon="-0.34112">
        <ele>212.59</ele>
        <time>2012-07-24T13:24:54Z</time>
      </trkpt>
      <trkpt lat="43.34362" lon="-0.34098">
        <ele>212.59</ele>
        <time>2012-07-24T13:25:12Z</time>
      </trkpt>
      <trkpt lat="43.34372" lon="-0.34094">
        <ele>213.07</ele>
        <time>2012-07-24T13:25:19Z</time>
      </trkpt>
      <trkpt lat="43.34379" lon="-0.34085">
        <ele>212.59</ele>
        <time>2012-07-24T13:25:25Z</time>
      </trkpt>
      <trkpt lat="43.34388" lon="-0.3408">
        <ele>212.59</ele>
        <time>2012-07-24T13:25:40Z</time>
      </trkpt>
      <trkpt lat="43.3439" lon="-0.34071">
        <ele>212.59</ele>
        <time>2012-07-24T13:26:11Z</time>
      </trkpt>
      <trkpt lat="43.34398" lon="-0.34063">
        <ele>212.59</ele>
        <time>2012-07-24T13:26:21Z</time>
      </trkpt>
      <trkpt lat="43.34428" lon="-0.34044">
        <ele>212.11</ele>
        <time>2012-07-24T13:26:39Z</time>
      </trkpt>
      <trkpt lat="43.34445" lon="-0.34029">
        <ele>211.15</ele>
        <time>2012-07-24T13:27:00Z</time>
      </trkpt>
      <trkpt lat="43.34462" lon="-0.34013">
        <ele>211.15</ele>
        <time>2012-07-24T13:27:16Z</time>
      </trkpt>
      <trkpt lat="43.34485" lon="-0.34001">
        <ele>211.15</ele>
        <time>2012-07-24T13:27:26Z</time>
      </trkpt>
      <trkpt lat="43.34495" lon="-0.33992">
        <ele>209.7</ele>
        <time>2012-07-24T13:27:35Z</time>
      </trkpt>
      <trkpt lat="43.34499" lon="-0.33982">
        <ele>210.67</ele>
        <time>2012-07-24T13:27:44Z</time>
      </trkpt>
      <trkpt lat="43.34503" lon="-0.33972">
        <ele>209.7</ele>
        <time>2012-07-24T13:28:13Z</time>
      </trkpt>
      <trkpt lat="43.34512" lon="-0.33966">
        <ele>210.67</ele>
        <time>2012-07-24T13:28:24Z</time>
      </trkpt>
      <trkpt lat="43.34512" lon="-0.33966">
        <ele>210.67</ele>
        <time>2012-07-24T13:29:20Z</time>
      </trkpt>
      <trkpt lat="43.34502" lon="-0.33967">
        <ele>210.67</ele>
        <time>2012-07-24T13:29:28Z</time>
      </trkpt>
      <trkpt lat="43.34496" lon="-0.33965">
        <ele>210.67</ele>
        <time>2012-07-24T13:29:36Z</time>
      </trkpt>
      <trkpt lat="43.34539" lon="-0.33965">
        <ele>210.67</ele>
        <time>2012-07-24T13:30:01Z</time>
      </trkpt>
      <trkpt lat="43.34547" lon="-0.33975">
        <ele>209.7</ele>
        <time>2012-07-24T13:30:16Z</time>
      </trkpt>
      <trkpt lat="43.34551" lon="-0.33987">
        <ele>210.19</ele>
        <time>2012-07-24T13:30:28Z</time>
      </trkpt>
      <trkpt lat="43.34555" lon="-0.33998">
        <ele>210.19</ele>
        <time>2012-07-24T13:30:38Z</time>
      </trkpt>
      <trkpt lat="43.34559" lon="-0.3401">
        <ele>210.67</ele>
        <time>2012-07-24T13:30:48Z</time>
      </trkpt>
      <trkpt lat="43.34566" lon="-0.34023">
        <ele>210.19</ele>
        <time>2012-07-24T13:30:57Z</time>
      </trkpt>
      <trkpt lat="43.34571" lon="-0.34033">
        <ele>210.19</ele>
        <time>2012-07-24T13:31:07Z</time>
      </trkpt>
      <trkpt lat="43.34579" lon="-0.34042">
        <ele>210.19</ele>
        <time>2012-07-24T13:31:17Z</time>
      </trkpt>
      <trkpt lat="43.34583" lon="-0.34052">
        <ele>209.7</ele>
        <time>2012-07-24T13:31:28Z</time>
      </trkpt>
      <trkpt lat="43.34591" lon="-0.34061">
        <ele>209.7</ele>
        <time>2012-07-24T13:31:36Z</time>
      </trkpt>
      <trkpt lat="43.34602" lon="-0.34074">
        <ele>209.7</ele>
        <time>2012-07-24T13:31:47Z</time>
      </trkpt>
      <trkpt lat="43.3461" lon="-0.34083">
        <ele>209.7</ele>
        <time>2012-07-24T13:31:57Z</time>
      </trkpt>
      <trkpt lat="43.34613" lon="-0.34096">
        <ele>209.22</ele>
        <time>2012-07-24T13:32:08Z</time>
      </trkpt>
      <trkpt lat="43.34611" lon="-0.34108">
        <ele>209.22</ele>
        <time>2012-07-24T13:32:18Z</time>
      </trkpt>
      <trkpt lat="43.34615" lon="-0.34121">
        <ele>209.22</ele>
        <time>2012-07-24T13:32:26Z</time>
      </trkpt>
      <trkpt lat="43.34618" lon="-0.34134">
        <ele>208.74</ele>
        <time>2012-07-24T13:32:42Z</time>
      </trkpt>
      <trkpt lat="43.34622" lon="-0.34145">
        <ele>209.22</ele>
        <time>2012-07-24T13:32:50Z</time>
      </trkpt>
      <trkpt lat="43.34628" lon="-0.34154">
        <ele>209.22</ele>
        <time>2012-07-24T13:32:57Z</time>
      </trkpt>
      <trkpt lat="43.34634" lon="-0.34165">
        <ele>209.7</ele>
        <time>2012-07-24T13:33:04Z</time>
      </trkpt>
      <trkpt lat="43.34638" lon="-0.34178">
        <ele>209.7</ele>
        <time>2012-07-24T13:33:11Z</time>
      </trkpt>
      <trkpt lat="43.34641" lon="-0.34191">
        <ele>209.22</ele>
        <time>2012-07-24T13:33:30Z</time>
      </trkpt>
      <trkpt lat="43.34644" lon="-0.34204">
        <ele>209.22</ele>
        <time>2012-07-24T13:33:37Z</time>
      </trkpt>
      <trkpt lat="43.3465" lon="-0.34215">
        <ele>209.22</ele>
        <time>2012-07-24T13:33:45Z</time>
      </trkpt>
      <trkpt lat="43.34653" lon="-0.34227">
        <ele>209.7</ele>
        <time>2012-07-24T13:33:54Z</time>
      </trkpt>
      <trkpt lat="43.3466" lon="-0.34243">
        <ele>209.22</ele>
        <time>2012-07-24T13:34:05Z</time>
      </trkpt>
      <trkpt lat="43.34672" lon="-0.34273">
        <ele>208.74</ele>
        <time>2012-07-24T13:35:02Z</time>
      </trkpt>
      <trkpt lat="43.34703" lon="-0.3434">
        <ele>208.26</ele>
        <time>2012-07-24T13:36:00Z</time>
      </trkpt>
      <trkpt lat="43.3473" lon="-0.344">
        <ele>207.3</ele>
        <time>2012-07-24T13:36:22Z</time>
      </trkpt>
      <trkpt lat="43.34739" lon="-0.34419">
        <ele>207.3</ele>
        <time>2012-07-24T13:36:31Z</time>
      </trkpt>
      <trkpt lat="43.3475" lon="-0.34441">
        <ele>207.78</ele>
        <time>2012-07-24T13:36:41Z</time>
      </trkpt>
      <trkpt lat="43.3476" lon="-0.34459">
        <ele>207.3</ele>
        <time>2012-07-24T13:36:50Z</time>
      </trkpt>
      <trkpt lat="43.34765" lon="-0.34472">
        <ele>207.78</ele>
        <time>2012-07-24T13:36:57Z</time>
      </trkpt>
      <trkpt lat="43.34769" lon="-0.34483">
        <ele>207.78</ele>
        <time>2012-07-24T13:37:05Z</time>
      </trkpt>
      <trkpt lat="43.34774" lon="-0.34495">
        <ele>207.3</ele>
        <time>2012-07-24T13:37:21Z</time>
      </trkpt>
      <trkpt lat="43.34779" lon="-0.34507">
        <ele>207.3</ele>
        <time>2012-07-24T13:37:27Z</time>
      </trkpt>
      <trkpt lat="43.34784" lon="-0.3452">
        <ele>207.3</ele>
        <time>2012-07-24T13:37:34Z</time>
      </trkpt>
      <trkpt lat="43.34789" lon="-0.34531">
        <ele>206.82</ele>
        <time>2012-07-24T13:37:41Z</time>
      </trkpt>
      <trkpt lat="43.34794" lon="-0.34543">
        <ele>206.82</ele>
        <time>2012-07-24T13:37:48Z</time>
      </trkpt>
      <trkpt lat="43.34798" lon="-0.34554">
        <ele>206.82</ele>
        <time>2012-07-24T13:37:55Z</time>
      </trkpt>
      <trkpt lat="43.34806" lon="-0.34567">
        <ele>206.34</ele>
        <time>2012-07-24T13:38:10Z</time>
      </trkpt>
      <trkpt lat="43.34816" lon="-0.34587">
        <ele>205.86</ele>
        <time>2012-07-24T13:38:28Z</time>
      </trkpt>
      <trkpt lat="43.34832" lon="-0.34632">
        <ele>206.34</ele>
        <time>2012-07-24T13:38:56Z</time>
      </trkpt>
      <trkpt lat="43.34838" lon="-0.34649">
        <ele>205.38</ele>
        <time>2012-07-24T13:39:05Z</time>
      </trkpt>
      <trkpt lat="43.34845" lon="-0.34665">
        <ele>205.86</ele>
        <time>2012-07-24T13:39:13Z</time>
      </trkpt>
      <trkpt lat="43.34851" lon="-0.34677">
        <ele>205.86</ele>
        <time>2012-07-24T13:39:20Z</time>
      </trkpt>
      <trkpt lat="43.34865" lon="-0.3471">
        <ele>204.9</ele>
        <time>2012-07-24T13:39:48Z</time>
      </trkpt>
      <trkpt lat="43.34874" lon="-0.34729">
        <ele>205.38</ele>
        <time>2012-07-24T13:39:57Z</time>
      </trkpt>
      <trkpt lat="43.34879" lon="-0.3474">
        <ele>204.9</ele>
        <time>2012-07-24T13:40:10Z</time>
      </trkpt>
      <trkpt lat="43.34886" lon="-0.34763">
        <ele>204.9</ele>
        <time>2012-07-24T13:40:44Z</time>
      </trkpt>
      <trkpt lat="43.34897" lon="-0.34786">
        <ele>204.9</ele>
        <time>2012-07-24T13:41:04Z</time>
      </trkpt>
      <trkpt lat="43.34899" lon="-0.34801">
        <ele>204.9</ele>
        <time>2012-07-24T13:41:11Z</time>
      </trkpt>
      <trkpt lat="43.349" lon="-0.34817">
        <ele>204.42</ele>
        <time>2012-07-24T13:41:19Z</time>
      </trkpt>
      <trkpt lat="43.34907" lon="-0.34829">
        <ele>204.9</ele>
        <time>2012-07-24T13:41:27Z</time>
      </trkpt>
      <trkpt lat="43.34911" lon="-0.34843">
        <ele>204.42</ele>
        <time>2012-07-24T13:41:36Z</time>
      </trkpt>
      <trkpt lat="43.34917" lon="-0.34848">
        <ele>204.9</ele>
        <time>2012-07-24T13:41:45Z</time>
      </trkpt>
      <trkpt lat="43.34926" lon="-0.34871">
        <ele>204.9</ele>
        <time>2012-07-24T13:41:57Z</time>
      </trkpt>
      <trkpt lat="43.34927" lon="-0.34885">
        <ele>203.94</ele>
        <time>2012-07-24T13:42:07Z</time>
      </trkpt>
      <trkpt lat="43.34954" lon="-0.34973">
        <ele>203.94</ele>
        <time>2012-07-24T13:43:14Z</time>
      </trkpt>
      <trkpt lat="43.3498" lon="-0.35031">
        <ele>204.9</ele>
        <time>2012-07-24T13:43:48Z</time>
      </trkpt>
      <trkpt lat="43.34988" lon="-0.35036">
        <ele>203.94</ele>
        <time>2012-07-24T13:43:55Z</time>
      </trkpt>
      <trkpt lat="43.35001" lon="-0.35045">
        <ele>203.94</ele>
        <time>2012-07-24T13:44:05Z</time>
      </trkpt>
      <trkpt lat="43.35011" lon="-0.35052">
        <ele>204.42</ele>
        <time>2012-07-24T13:44:11Z</time>
      </trkpt>
      <trkpt lat="43.35009" lon="-0.35063">
        <ele>203.94</ele>
        <time>2012-07-24T13:44:20Z</time>
      </trkpt>
      <trkpt lat="43.35017" lon="-0.35089">
        <ele>203.94</ele>
        <time>2012-07-24T13:44:40Z</time>
      </trkpt>
      <trkpt lat="43.35022" lon="-0.35108">
        <ele>203.94</ele>
        <time>2012-07-24T13:44:55Z</time>
      </trkpt>
      <trkpt lat="43.35026" lon="-0.3512">
        <ele>203.94</ele>
        <time>2012-07-24T13:45:04Z</time>
      </trkpt>
      <trkpt lat="43.35039" lon="-0.35144">
        <ele>203.46</ele>
        <time>2012-07-24T13:45:16Z</time>
      </trkpt>
      <trkpt lat="43.35048" lon="-0.3515">
        <ele>202.98</ele>
        <time>2012-07-24T13:45:25Z</time>
      </trkpt>
      <trkpt lat="43.35053" lon="-0.35167">
        <ele>203.46</ele>
        <time>2012-07-24T13:45:38Z</time>
      </trkpt>
      <trkpt lat="43.35058" lon="-0.35184">
        <ele>203.46</ele>
        <time>2012-07-24T13:45:47Z</time>
      </trkpt>
      <trkpt lat="43.35068" lon="-0.352">
        <ele>203.46</ele>
        <time>2012-07-24T13:45:57Z</time>
      </trkpt>
      <trkpt lat="43.3508" lon="-0.35216">
        <ele>203.94</ele>
        <time>2012-07-24T13:46:19Z</time>
      </trkpt>
      <trkpt lat="43.35088" lon="-0.35222">
        <ele>203.94</ele>
        <time>2012-07-24T13:46:33Z</time>
      </trkpt>
      <trkpt lat="43.35097" lon="-0.35238">
        <ele>204.42</ele>
        <time>2012-07-24T13:46:41Z</time>
      </trkpt>
      <trkpt lat="43.35107" lon="-0.35258">
        <ele>203.46</ele>
        <time>2012-07-24T13:46:51Z</time>
      </trkpt>
      <trkpt lat="43.35108" lon="-0.35272">
        <ele>204.42</ele>
        <time>2012-07-24T13:47:00Z</time>
      </trkpt>
      <trkpt lat="43.35116" lon="-0.3529">
        <ele>204.42</ele>
        <time>2012-07-24T13:47:08Z</time>
      </trkpt>
      <trkpt lat="43.35124" lon="-0.35294">
        <ele>204.9</ele>
        <time>2012-07-24T13:47:20Z</time>
      </trkpt>
      <trkpt lat="43.3512" lon="-0.35296">
        <ele>205.38</ele>
        <time>2012-07-24T13:47:47Z</time>
      </trkpt>
      <trkpt lat="43.3511" lon="-0.35296">
        <ele>204.9</ele>
        <time>2012-07-24T13:47:58Z</time>
      </trkpt>
      <trkpt lat="43.35119" lon="-0.35282">
        <ele>204.9</ele>
        <time>2012-07-24T13:48:16Z</time>
      </trkpt>
      <trkpt lat="43.35118" lon="-0.35279">
        <ele>204.42</ele>
        <time>2012-07-24T13:49:00Z</time>
      </trkpt>
      <trkpt lat="43.35112" lon="-0.35288">
        <ele>204.9</ele>
        <time>2012-07-24T13:49:11Z</time>
      </trkpt>
      <trkpt lat="43.35122" lon="-0.35289">
        <ele>204.9</ele>
        <time>2012-07-24T13:49:38Z</time>
      </trkpt>
      <trkpt lat="43.35129" lon="-0.35295">
        <ele>204.9</ele>
        <time>2012-07-24T13:50:03Z</time>
      </trkpt>
      <trkpt lat="43.35132" lon="-0.35306">
        <ele>205.38</ele>
        <time>2012-07-24T13:50:19Z</time>
      </trkpt>
      <trkpt lat="43.35133" lon="-0.353">
        <ele>204.9</ele>
        <time>2012-07-24T13:50:44Z</time>
      </trkpt>
      <trkpt lat="43.35126" lon="-0.35294">
        <ele>205.38</ele>
        <time>2012-07-24T13:51:02Z</time>
      </trkpt>
      <trkpt lat="43.35117" lon="-0.35288">
        <ele>204.9</ele>
        <time>2012-07-24T13:51:08Z</time>
      </trkpt>
      <trkpt lat="43.3511" lon="-0.35287">
        <ele>204.9</ele>
        <time>2012-07-24T13:51:22Z</time>
      </trkpt>
      <trkpt lat="43.35104" lon="-0.35291">
        <ele>204.9</ele>
        <time>2012-07-24T13:51:39Z</time>
      </trkpt>
      <trkpt lat="43.35114" lon="-0.35293">
        <ele>204.9</ele>
        <time>2012-07-24T13:51:52Z</time>
      </trkpt>
      <trkpt lat="43.35128" lon="-0.35271">
        <ele>204.42</ele>
        <time>2012-07-24T13:52:25Z</time>
      </trkpt>
      <trkpt lat="43.35138" lon="-0.35277">
        <ele>204.42</ele>
        <time>2012-07-24T13:52:45Z</time>
      </trkpt>
      <trkpt lat="43.35148" lon="-0.35318">
        <ele>204.42</ele>
        <time>2012-07-24T13:52:55Z</time>
      </trkpt>
      <trkpt lat="43.35149" lon="-0.3534">
        <ele>204.42</ele>
        <time>2012-07-24T13:53:05Z</time>
      </trkpt>
      <trkpt lat="43.35156" lon="-0.35347">
        <ele>204.42</ele>
        <time>2012-07-24T13:53:15Z</time>
      </trkpt>
      <trkpt lat="43.35155" lon="-0.35364">
        <ele>204.42</ele>
        <time>2012-07-24T13:53:39Z</time>
      </trkpt>
      <trkpt lat="43.35164" lon="-0.35392">
        <ele>204.42</ele>
        <time>2012-07-24T13:53:54Z</time>
      </trkpt>
      <trkpt lat="43.35172" lon="-0.35404">
        <ele>204.42</ele>
        <time>2012-07-24T13:54:03Z</time>
      </trkpt>
      <trkpt lat="43.35178" lon="-0.35417">
        <ele>204.9</ele>
        <time>2012-07-24T13:54:12Z</time>
      </trkpt>
      <trkpt lat="43.35185" lon="-0.3543">
        <ele>204.9</ele>
        <time>2012-07-24T13:54:21Z</time>
      </trkpt>
      <trkpt lat="43.35186" lon="-0.35444">
        <ele>204.42</ele>
        <time>2012-07-24T13:54:30Z</time>
      </trkpt>
      <trkpt lat="43.35188" lon="-0.35447">
        <ele>204.42</ele>
        <time>2012-07-24T13:54:41Z</time>
      </trkpt>
      <trkpt lat="43.35181" lon="-0.35439">
        <ele>204.9</ele>
        <time>2012-07-24T13:54:54Z</time>
      </trkpt>
      <trkpt lat="43.3519" lon="-0.35435">
        <ele>204.9</ele>
        <time>2012-07-24T13:55:21Z</time>
      </trkpt>
      <trkpt lat="43.35197" lon="-0.35443">
        <ele>204.42</ele>
        <time>2012-07-24T13:55:59Z</time>
      </trkpt>
      <trkpt lat="43.352" lon="-0.35467">
        <ele>204.9</ele>
        <time>2012-07-24T13:56:22Z</time>
      </trkpt>
      <trkpt lat="43.35212" lon="-0.35498">
        <ele>204.42</ele>
        <time>2012-07-24T13:56:41Z</time>
      </trkpt>
      <trkpt lat="43.35233" lon="-0.35542">
        <ele>204.42</ele>
        <time>2012-07-24T13:57:20Z</time>
      </trkpt>
      <trkpt lat="43.35244" lon="-0.3555">
        <ele>204.42</ele>
        <time>2012-07-24T13:57:28Z</time>
      </trkpt>
      <trkpt lat="43.35245" lon="-0.35564">
        <ele>204.42</ele>
        <time>2012-07-24T13:57:45Z</time>
      </trkpt>
      <trkpt lat="43.35253" lon="-0.35565">
        <ele>204.42</ele>
        <time>2012-07-24T13:58:05Z</time>
      </trkpt>
      <trkpt lat="43.35263" lon="-0.3557">
        <ele>204.9</ele>
        <time>2012-07-24T13:58:19Z</time>
      </trkpt>
      <trkpt lat="43.3524" lon="-0.35581">
        <ele>204.42</ele>
        <time>2012-07-24T13:58:58Z</time>
      </trkpt>
      <trkpt lat="43.35232" lon="-0.35593">
        <ele>204.42</ele>
        <time>2012-07-24T13:59:11Z</time>
      </trkpt>
      <trkpt lat="43.35224" lon="-0.356">
        <ele>204.9</ele>
        <time>2012-07-24T13:59:34Z</time>
      </trkpt>
      <trkpt lat="43.35215" lon="-0.35603">
        <ele>204.9</ele>
        <time>2012-07-24T13:59:44Z</time>
      </trkpt>
      <trkpt lat="43.35206" lon="-0.35607">
        <ele>204.42</ele>
        <time>2012-07-24T13:59:53Z</time>
      </trkpt>
      <trkpt lat="43.35197" lon="-0.35612">
        <ele>204.42</ele>
        <time>2012-07-24T14:00:02Z</time>
      </trkpt>
      <trkpt lat="43.35188" lon="-0.35618">
        <ele>203.94</ele>
        <time>2012-07-24T14:00:12Z</time>
      </trkpt>
      <trkpt lat="43.35177" lon="-0.35624">
        <ele>203.94</ele>
        <time>2012-07-24T14:00:18Z</time>
      </trkpt>
      <trkpt lat="43.35165" lon="-0.3563">
        <ele>203.94</ele>
        <time>2012-07-24T14:00:23Z</time>
      </trkpt>
      <trkpt lat="43.35154" lon="-0.35633">
        <ele>203.46</ele>
        <time>2012-07-24T14:00:28Z</time>
      </trkpt>
      <trkpt lat="43.35144" lon="-0.35636">
        <ele>203.94</ele>
        <time>2012-07-24T14:00:33Z</time>
      </trkpt>
      <trkpt lat="43.35135" lon="-0.3564">
        <ele>203.46</ele>
        <time>2012-07-24T14:00:38Z</time>
      </trkpt>
      <trkpt lat="43.35125" lon="-0.35647">
        <ele>203.94</ele>
        <time>2012-07-24T14:00:44Z</time>
      </trkpt>
      <trkpt lat="43.35115" lon="-0.35654">
        <ele>204.42</ele>
        <time>2012-07-24T14:00:50Z</time>
      </trkpt>
      <trkpt lat="43.35106" lon="-0.3566">
        <ele>204.42</ele>
        <time>2012-07-24T14:00:56Z</time>
      </trkpt>
      <trkpt lat="43.35105" lon="-0.35658">
        <ele>203.94</ele>
        <time>2012-07-24T14:01:02Z</time>
      </trkpt>
      <trkpt lat="43.35116" lon="-0.3568">
        <ele>204.42</ele>
        <time>2012-07-24T14:01:10Z</time>
      </trkpt>
      <trkpt lat="43.35114" lon="-0.35692">
        <ele>204.42</ele>
        <time>2012-07-24T14:01:18Z</time>
      </trkpt>
      <trkpt lat="43.35107" lon="-0.35703">
        <ele>204.42</ele>
        <time>2012-07-24T14:01:28Z</time>
      </trkpt>
      <trkpt lat="43.35092" lon="-0.35716">
        <ele>203.94</ele>
        <time>2012-07-24T14:01:38Z</time>
      </trkpt>
      <trkpt lat="43.35084" lon="-0.35724">
        <ele>204.42</ele>
        <time>2012-07-24T14:01:48Z</time>
      </trkpt>
      <trkpt lat="43.35075" lon="-0.35727">
        <ele>204.42</ele>
        <time>2012-07-24T14:02:00Z</time>
      </trkpt>
      <trkpt lat="43.35067" lon="-0.35732">
        <ele>204.42</ele>
        <time>2012-07-24T14:02:24Z</time>
      </trkpt>
      <trkpt lat="43.35058" lon="-0.35738">
        <ele>204.42</ele>
        <time>2012-07-24T14:02:37Z</time>
      </trkpt>
      <trkpt lat="43.3505" lon="-0.35745">
        <ele>204.42</ele>
        <time>2012-07-24T14:02:50Z</time>
      </trkpt>
      <trkpt lat="43.35015" lon="-0.35776">
        <ele>204.42</ele>
        <time>2012-07-24T14:03:07Z</time>
      </trkpt>
      <trkpt lat="43.35009" lon="-0.35787">
        <ele>203.94</ele>
        <time>2012-07-24T14:03:15Z</time>
      </trkpt>
      <trkpt lat="43.35003" lon="-0.35803">
        <ele>203.46</ele>
        <time>2012-07-24T14:03:41Z</time>
      </trkpt>
      <trkpt lat="43.34995" lon="-0.3581">
        <ele>202.98</ele>
        <time>2012-07-24T14:03:57Z</time>
      </trkpt>
      <trkpt lat="43.34981" lon="-0.35821">
        <ele>202.01</ele>
        <time>2012-07-24T14:04:09Z</time>
      </trkpt>
      <trkpt lat="43.34971" lon="-0.35831">
        <ele>202.01</ele>
        <time>2012-07-24T14:04:18Z</time>
      </trkpt>
      <trkpt lat="43.34965" lon="-0.35841">
        <ele>201.05</ele>
        <time>2012-07-24T14:04:27Z</time>
      </trkpt>
      <trkpt lat="43.3496" lon="-0.35852">
        <ele>201.05</ele>
        <time>2012-07-24T14:04:37Z</time>
      </trkpt>
      <trkpt lat="43.34953" lon="-0.35859">
        <ele>201.05</ele>
        <time>2012-07-24T14:04:47Z</time>
      </trkpt>
      <trkpt lat="43.34945" lon="-0.35864">
        <ele>201.53</ele>
        <time>2012-07-24T14:05:00Z</time>
      </trkpt>
      <trkpt lat="43.3493" lon="-0.35875">
        <ele>202.01</ele>
        <time>2012-07-24T14:05:22Z</time>
      </trkpt>
      <trkpt lat="43.34919" lon="-0.35886">
        <ele>201.53</ele>
        <time>2012-07-24T14:05:30Z</time>
      </trkpt>
      <trkpt lat="43.34909" lon="-0.35894">
        <ele>202.01</ele>
        <time>2012-07-24T14:05:38Z</time>
      </trkpt>
      <trkpt lat="43.34903" lon="-0.35904">
        <ele>202.01</ele>
        <time>2012-07-24T14:05:51Z</time>
      </trkpt>
      <trkpt lat="43.34901" lon="-0.35916">
        <ele>201.53</ele>
        <time>2012-07-24T14:05:59Z</time>
      </trkpt>
      <trkpt lat="43.34892" lon="-0.35929">
        <ele>202.01</ele>
        <time>2012-07-24T14:06:09Z</time>
      </trkpt>
      <trkpt lat="43.34884" lon="-0.35934">
        <ele>202.01</ele>
        <time>2012-07-24T14:06:20Z</time>
      </trkpt>
      <trkpt lat="43.34875" lon="-0.35941">
        <ele>202.98</ele>
        <time>2012-07-24T14:06:28Z</time>
      </trkpt>
      <trkpt lat="43.34867" lon="-0.35947">
        <ele>202.98</ele>
        <time>2012-07-24T14:06:40Z</time>
      </trkpt>
      <trkpt lat="43.34859" lon="-0.35955">
        <ele>202.98</ele>
        <time>2012-07-24T14:06:51Z</time>
      </trkpt>
      <trkpt lat="43.34844" lon="-0.35962">
        <ele>203.94</ele>
        <time>2012-07-24T14:06:58Z</time>
      </trkpt>
      <trkpt lat="43.34836" lon="-0.35968">
        <ele>203.94</ele>
        <time>2012-07-24T14:07:05Z</time>
      </trkpt>
      <trkpt lat="43.34828" lon="-0.35969">
        <ele>204.42</ele>
        <time>2012-07-24T14:07:16Z</time>
      </trkpt>
      <trkpt lat="43.34825" lon="-0.35983">
        <ele>204.9</ele>
        <time>2012-07-24T14:07:35Z</time>
      </trkpt>
      <trkpt lat="43.34822" lon="-0.35994">
        <ele>204.9</ele>
        <time>2012-07-24T14:07:43Z</time>
      </trkpt>
      <trkpt lat="43.34816" lon="-0.36004">
        <ele>205.38</ele>
        <time>2012-07-24T14:07:53Z</time>
      </trkpt>
      <trkpt lat="43.34811" lon="-0.36013">
        <ele>205.38</ele>
        <time>2012-07-24T14:08:06Z</time>
      </trkpt>
      <trkpt lat="43.34798" lon="-0.36023">
        <ele>205.38</ele>
        <time>2012-07-24T14:08:18Z</time>
      </trkpt>
      <trkpt lat="43.34787" lon="-0.3603">
        <ele>205.38</ele>
        <time>2012-07-24T14:08:26Z</time>
      </trkpt>
      <trkpt lat="43.34773" lon="-0.36037">
        <ele>205.86</ele>
        <time>2012-07-24T14:08:34Z</time>
      </trkpt>
      <trkpt lat="43.34761" lon="-0.36041">
        <ele>206.34</ele>
        <time>2012-07-24T14:08:43Z</time>
      </trkpt>
      <trkpt lat="43.34752" lon="-0.36046">
        <ele>205.38</ele>
        <time>2012-07-24T14:08:51Z</time>
      </trkpt>
      <trkpt lat="43.34743" lon="-0.36054">
        <ele>205.86</ele>
        <time>2012-07-24T14:09:10Z</time>
      </trkpt>
      <trkpt lat="43.34726" lon="-0.36068">
        <ele>206.34</ele>
        <time>2012-07-24T14:09:19Z</time>
      </trkpt>
      <trkpt lat="43.34709" lon="-0.3608">
        <ele>205.86</ele>
        <time>2012-07-24T14:09:28Z</time>
      </trkpt>
      <trkpt lat="43.34697" lon="-0.36095">
        <ele>205.86</ele>
        <time>2012-07-24T14:09:37Z</time>
      </trkpt>
      <trkpt lat="43.3469" lon="-0.36103">
        <ele>206.34</ele>
        <time>2012-07-24T14:09:47Z</time>
      </trkpt>
      <trkpt lat="43.34683" lon="-0.36109">
        <ele>206.34</ele>
        <time>2012-07-24T14:09:58Z</time>
      </trkpt>
      <trkpt lat="43.34677" lon="-0.36115">
        <ele>206.34</ele>
        <time>2012-07-24T14:10:09Z</time>
      </trkpt>
      <trkpt lat="43.34672" lon="-0.36121">
        <ele>206.34</ele>
        <time>2012-07-24T14:10:20Z</time>
      </trkpt>
      <trkpt lat="43.34738" lon="-0.36173">
        <ele>206.82</ele>
        <time>2012-07-24T14:11:28Z</time>
      </trkpt>
      <trkpt lat="43.34744" lon="-0.36181">
        <ele>206.82</ele>
        <time>2012-07-24T14:11:31Z</time>
      </trkpt>
      <trkpt lat="43.34748" lon="-0.36177">
        <ele>206.34</ele>
        <time>2012-07-24T14:11:35Z</time>
      </trkpt>
      <trkpt lat="43.34753" lon="-0.3617">
        <ele>206.34</ele>
        <time>2012-07-24T14:11:39Z</time>
      </trkpt>
      <trkpt lat="43.34697" lon="-0.36113">
        <ele>206.34</ele>
        <time>2012-07-24T14:12:02Z</time>
      </trkpt>
      <trkpt lat="43.34687" lon="-0.36114">
        <ele>206.34</ele>
        <time>2012-07-24T14:12:14Z</time>
      </trkpt>
      <trkpt lat="43.34676" lon="-0.36127">
        <ele>206.34</ele>
        <time>2012-07-24T14:12:33Z</time>
      </trkpt>
      <trkpt lat="43.34671" lon="-0.36114">
        <ele>206.34</ele>
        <time>2012-07-24T14:12:50Z</time>
      </trkpt>
      <trkpt lat="43.34673" lon="-0.36111">
        <ele>206.82</ele>
        <time>2012-07-24T14:13:28Z</time>
      </trkpt>
      <trkpt lat="43.34683" lon="-0.36111">
        <ele>206.34</ele>
        <time>2012-07-24T14:13:38Z</time>
      </trkpt>
      <trkpt lat="43.34673" lon="-0.36118">
        <ele>207.3</ele>
        <time>2012-07-24T14:14:22Z</time>
      </trkpt>
      <trkpt lat="43.34664" lon="-0.36117">
        <ele>206.82</ele>
        <time>2012-07-24T14:14:36Z</time>
      </trkpt>
      <trkpt lat="43.34673" lon="-0.36111">
        <ele>207.3</ele>
        <time>2012-07-24T14:15:10Z</time>
      </trkpt>
      <trkpt lat="43.34681" lon="-0.36116">
        <ele>207.3</ele>
        <time>2012-07-24T14:15:21Z</time>
      </trkpt>
      <trkpt lat="43.34689" lon="-0.36125">
        <ele>207.3</ele>
        <time>2012-07-24T14:15:35Z</time>
      </trkpt>
      <trkpt lat="43.34697" lon="-0.36134">
        <ele>207.78</ele>
        <time>2012-07-24T14:15:49Z</time>
      </trkpt>
      <trkpt lat="43.34693" lon="-0.36117">
        <ele>207.3</ele>
        <time>2012-07-24T14:15:57Z</time>
      </trkpt>
      <trkpt lat="43.34691" lon="-0.36117">
        <ele>207.78</ele>
        <time>2012-07-24T14:16:10Z</time>
      </trkpt>
      <trkpt lat="43.3468" lon="-0.36125">
        <ele>207.78</ele>
        <time>2012-07-24T14:16:27Z</time>
      </trkpt>
      <trkpt lat="43.34671" lon="-0.36124">
        <ele>208.26</ele>
        <time>2012-07-24T14:16:38Z</time>
      </trkpt>
      <trkpt lat="43.34668" lon="-0.36106">
        <ele>208.26</ele>
        <time>2012-07-24T14:17:04Z</time>
      </trkpt>
      <trkpt lat="43.34669" lon="-0.36118">
        <ele>206.34</ele>
        <time>2012-07-24T14:18:17Z</time>
      </trkpt>
      <trkpt lat="43.3466" lon="-0.36121">
        <ele>209.7</ele>
        <time>2012-07-24T14:22:04Z</time>
      </trkpt>
      <trkpt lat="43.34665" lon="-0.36122">
        <ele>210.19</ele>
        <time>2012-07-24T14:22:35Z</time>
      </trkpt>
      <trkpt lat="43.34672" lon="-0.36117">
        <ele>210.19</ele>
        <time>2012-07-24T14:22:48Z</time>
      </trkpt>
      <trkpt lat="43.34673" lon="-0.36127">
        <ele>210.19</ele>
        <time>2012-07-24T14:23:54Z</time>
      </trkpt>
      <trkpt lat="43.34668" lon="-0.36136">
        <ele>210.19</ele>
        <time>2012-07-24T14:24:26Z</time>
      </trkpt>
      <trkpt lat="43.3466" lon="-0.36141">
        <ele>210.67</ele>
        <time>2012-07-24T14:24:43Z</time>
      </trkpt>
      <trkpt lat="43.34668" lon="-0.36117">
        <ele>211.15</ele>
        <time>2012-07-24T14:25:04Z</time>
      </trkpt>
      <trkpt lat="43.34666" lon="-0.36119">
        <ele>210.67</ele>
        <time>2012-07-24T14:25:58Z</time>
      </trkpt>
      <trkpt lat="43.34667" lon="-0.36131">
        <ele>210.67</ele>
        <time>2012-07-24T14:26:10Z</time>
      </trkpt>
      <trkpt lat="43.34668" lon="-0.36143">
        <ele>210.67</ele>
        <time>2012-07-24T14:26:20Z</time>
      </trkpt>
      <trkpt lat="43.34662" lon="-0.36149">
        <ele>211.15</ele>
        <time>2012-07-24T14:27:09Z</time>
      </trkpt>
      <trkpt lat="43.34654" lon="-0.36148">
        <ele>211.15</ele>
        <time>2012-07-24T14:27:40Z</time>
      </trkpt>
      <trkpt lat="43.34654" lon="-0.36125">
        <ele>211.63</ele>
        <time>2012-07-24T14:28:31Z</time>
      </trkpt>
      <trkpt lat="43.34663" lon="-0.36143">
        <ele>211.63</ele>
        <time>2012-07-24T14:29:12Z</time>
      </trkpt>
      <trkpt lat="43.34666" lon="-0.36118">
        <ele>212.11</ele>
        <time>2012-07-24T14:30:15Z</time>
      </trkpt>
      <trkpt lat="43.3465" lon="-0.36138">
        <ele>212.11</ele>
        <time>2012-07-24T14:30:42Z</time>
      </trkpt>
      <trkpt lat="43.34636" lon="-0.36151">
        <ele>212.11</ele>
        <time>2012-07-24T14:30:52Z</time>
      </trkpt>
      <trkpt lat="43.34629" lon="-0.36159">
        <ele>212.11</ele>
        <time>2012-07-24T14:30:59Z</time>
      </trkpt>
      <trkpt lat="43.34626" lon="-0.36171">
        <ele>211.63</ele>
        <time>2012-07-24T14:31:06Z</time>
      </trkpt>
      <trkpt lat="43.34617" lon="-0.36179">
        <ele>212.11</ele>
        <time>2012-07-24T14:31:16Z</time>
      </trkpt>
      <trkpt lat="43.34608" lon="-0.36186">
        <ele>212.11</ele>
        <time>2012-07-24T14:31:26Z</time>
      </trkpt>
      <trkpt lat="43.34599" lon="-0.36194">
        <ele>212.11</ele>
        <time>2012-07-24T14:31:36Z</time>
      </trkpt>
      <trkpt lat="43.34591" lon="-0.36201">
        <ele>212.11</ele>
        <time>2012-07-24T14:31:44Z</time>
      </trkpt>
      <trkpt lat="43.34583" lon="-0.36204">
        <ele>212.11</ele>
        <time>2012-07-24T14:31:52Z</time>
      </trkpt>
      <trkpt lat="43.34576" lon="-0.36215">
        <ele>212.11</ele>
        <time>2012-07-24T14:32:02Z</time>
      </trkpt>
      <trkpt lat="43.34567" lon="-0.36219">
        <ele>212.11</ele>
        <time>2012-07-24T14:32:16Z</time>
      </trkpt>
      <trkpt lat="43.3456" lon="-0.36228">
        <ele>212.11</ele>
        <time>2012-07-24T14:32:22Z</time>
      </trkpt>
      <trkpt lat="43.34551" lon="-0.36234">
        <ele>211.63</ele>
        <time>2012-07-24T14:32:29Z</time>
      </trkpt>
      <trkpt lat="43.34542" lon="-0.36237">
        <ele>211.63</ele>
        <time>2012-07-24T14:32:36Z</time>
      </trkpt>
      <trkpt lat="43.34533" lon="-0.36243">
        <ele>211.63</ele>
        <time>2012-07-24T14:32:45Z</time>
      </trkpt>
      <trkpt lat="43.34528" lon="-0.36255">
        <ele>211.63</ele>
        <time>2012-07-24T14:32:54Z</time>
      </trkpt>
      <trkpt lat="43.34521" lon="-0.36264">
        <ele>211.15</ele>
        <time>2012-07-24T14:33:03Z</time>
      </trkpt>
      <trkpt lat="43.34514" lon="-0.36271">
        <ele>210.67</ele>
        <time>2012-07-24T14:33:13Z</time>
      </trkpt>
      <trkpt lat="43.34506" lon="-0.36276">
        <ele>211.15</ele>
        <time>2012-07-24T14:33:22Z</time>
      </trkpt>
      <trkpt lat="43.34494" lon="-0.36282">
        <ele>211.15</ele>
        <time>2012-07-24T14:33:37Z</time>
      </trkpt>
      <trkpt lat="43.34487" lon="-0.36289">
        <ele>210.67</ele>
        <time>2012-07-24T14:33:46Z</time>
      </trkpt>
      <trkpt lat="43.34475" lon="-0.36298">
        <ele>210.67</ele>
        <time>2012-07-24T14:34:09Z</time>
      </trkpt>
      <trkpt lat="43.34466" lon="-0.36308">
        <ele>210.67</ele>
        <time>2012-07-24T14:34:17Z</time>
      </trkpt>
      <trkpt lat="43.34447" lon="-0.3632">
        <ele>211.63</ele>
        <time>2012-07-24T14:34:41Z</time>
      </trkpt>
      <trkpt lat="43.34439" lon="-0.36326">
        <ele>211.15</ele>
        <time>2012-07-24T14:34:48Z</time>
      </trkpt>
      <trkpt lat="43.34428" lon="-0.36339">
        <ele>211.63</ele>
        <time>2012-07-24T14:35:06Z</time>
      </trkpt>
      <trkpt lat="43.34407" lon="-0.36357">
        <ele>211.63</ele>
        <time>2012-07-24T14:35:27Z</time>
      </trkpt>
      <trkpt lat="43.34399" lon="-0.36365">
        <ele>212.11</ele>
        <time>2012-07-24T14:35:44Z</time>
      </trkpt>
      <trkpt lat="43.34385" lon="-0.36379">
        <ele>212.11</ele>
        <time>2012-07-24T14:35:56Z</time>
      </trkpt>
      <trkpt lat="43.34377" lon="-0.36383">
        <ele>212.11</ele>
        <time>2012-07-24T14:36:05Z</time>
      </trkpt>
      <trkpt lat="43.34368" lon="-0.36388">
        <ele>212.11</ele>
        <time>2012-07-24T14:36:13Z</time>
      </trkpt>
      <trkpt lat="43.3436" lon="-0.36394">
        <ele>212.59</ele>
        <time>2012-07-24T14:36:22Z</time>
      </trkpt>
      <trkpt lat="43.34349" lon="-0.36402">
        <ele>212.11</ele>
        <time>2012-07-24T14:36:37Z</time>
      </trkpt>
      <trkpt lat="43.34339" lon="-0.36412">
        <ele>212.11</ele>
        <time>2012-07-24T14:36:50Z</time>
      </trkpt>
      <trkpt lat="43.34331" lon="-0.36424">
        <ele>212.59</ele>
        <time>2012-07-24T14:36:58Z</time>
      </trkpt>
      <trkpt lat="43.34322" lon="-0.36428">
        <ele>212.59</ele>
        <time>2012-07-24T14:37:08Z</time>
      </trkpt>
      <trkpt lat="43.34314" lon="-0.36436">
        <ele>212.59</ele>
        <time>2012-07-24T14:37:17Z</time>
      </trkpt>
      <trkpt lat="43.34309" lon="-0.36445">
        <ele>212.59</ele>
        <time>2012-07-24T14:37:27Z</time>
      </trkpt>
      <trkpt lat="43.34301" lon="-0.36454">
        <ele>212.11</ele>
        <time>2012-07-24T14:37:36Z</time>
      </trkpt>
      <trkpt lat="43.34295" lon="-0.36461">
        <ele>212.11</ele>
        <time>2012-07-24T14:37:44Z</time>
      </trkpt>
      <trkpt lat="43.34264" lon="-0.36484">
        <ele>212.11</ele>
        <time>2012-07-24T14:38:25Z</time>
      </trkpt>
      <trkpt lat="43.3424" lon="-0.36507">
        <ele>212.11</ele>
        <time>2012-07-24T14:39:19Z</time>
      </trkpt>
      <trkpt lat="43.3423" lon="-0.36512">
        <ele>212.59</ele>
        <time>2012-07-24T14:39:30Z</time>
      </trkpt>
      <trkpt lat="43.34222" lon="-0.3652">
        <ele>212.59</ele>
        <time>2012-07-24T14:39:38Z</time>
      </trkpt>
      <trkpt lat="43.34214" lon="-0.36524">
        <ele>212.59</ele>
        <time>2012-07-24T14:39:47Z</time>
      </trkpt>
      <trkpt lat="43.34206" lon="-0.36534">
        <ele>212.59</ele>
        <time>2012-07-24T14:40:00Z</time>
      </trkpt>
      <trkpt lat="43.34166" lon="-0.36572">
        <ele>213.07</ele>
        <time>2012-07-24T14:40:53Z</time>
      </trkpt>
      <trkpt lat="43.3413" lon="-0.36595">
        <ele>212.59</ele>
        <time>2012-07-24T14:41:16Z</time>
      </trkpt>
      <trkpt lat="43.34116" lon="-0.36607">
        <ele>212.11</ele>
        <time>2012-07-24T14:41:27Z</time>
      </trkpt>
      <trkpt lat="43.34109" lon="-0.36617">
        <ele>212.59</ele>
        <time>2012-07-24T14:41:35Z</time>
      </trkpt>
      <trkpt lat="43.341" lon="-0.36619">
        <ele>212.59</ele>
        <time>2012-07-24T14:41:46Z</time>
      </trkpt>
      <trkpt lat="43.34091" lon="-0.36624">
        <ele>212.11</ele>
        <time>2012-07-24T14:41:58Z</time>
      </trkpt>
      <trkpt lat="43.34081" lon="-0.36629">
        <ele>211.63</ele>
        <time>2012-07-24T14:42:06Z</time>
      </trkpt>
      <trkpt lat="43.34067" lon="-0.3664">
        <ele>212.11</ele>
        <time>2012-07-24T14:42:20Z</time>
      </trkpt>
      <trkpt lat="43.34059" lon="-0.36646">
        <ele>212.11</ele>
        <time>2012-07-24T14:42:27Z</time>
      </trkpt>
      <trkpt lat="43.3405" lon="-0.36647">
        <ele>212.11</ele>
        <time>2012-07-24T14:42:38Z</time>
      </trkpt>
      <trkpt lat="43.34041" lon="-0.36648">
        <ele>212.11</ele>
        <time>2012-07-24T14:42:47Z</time>
      </trkpt>
      <trkpt lat="43.34032" lon="-0.36644">
        <ele>211.63</ele>
        <time>2012-07-24T14:42:55Z</time>
      </trkpt>
      <trkpt lat="43.34023" lon="-0.36644">
        <ele>212.11</ele>
        <time>2012-07-24T14:43:04Z</time>
      </trkpt>
      <trkpt lat="43.34013" lon="-0.36642">
        <ele>212.11</ele>
        <time>2012-07-24T14:43:13Z</time>
      </trkpt>
      <trkpt lat="43.34006" lon="-0.36646">
        <ele>212.59</ele>
        <time>2012-07-24T14:43:27Z</time>
      </trkpt>
      <trkpt lat="43.34" lon="-0.3665">
        <ele>213.07</ele>
        <time>2012-07-24T14:44:28Z</time>
      </trkpt>
      <trkpt lat="43.33997" lon="-0.36657">
        <ele>212.59</ele>
        <time>2012-07-24T14:44:42Z</time>
      </trkpt>
      <trkpt lat="43.33989" lon="-0.36664">
        <ele>213.07</ele>
        <time>2012-07-24T14:44:56Z</time>
      </trkpt>
      <trkpt lat="43.33983" lon="-0.36673">
        <ele>213.07</ele>
        <time>2012-07-24T14:45:12Z</time>
      </trkpt>
      <trkpt lat="43.3397" lon="-0.36679">
        <ele>213.07</ele>
        <time>2012-07-24T14:45:21Z</time>
      </trkpt>
      <trkpt lat="43.3396" lon="-0.36683">
        <ele>212.59</ele>
        <time>2012-07-24T14:45:30Z</time>
      </trkpt>
      <trkpt lat="43.33952" lon="-0.36686">
        <ele>212.59</ele>
        <time>2012-07-24T14:45:42Z</time>
      </trkpt>
      <trkpt lat="43.33944" lon="-0.3669">
        <ele>212.11</ele>
        <time>2012-07-24T14:45:55Z</time>
      </trkpt>
      <trkpt lat="43.33936" lon="-0.36699">
        <ele>212.11</ele>
        <time>2012-07-24T14:46:04Z</time>
      </trkpt>
      <trkpt lat="43.33932" lon="-0.3671">
        <ele>212.11</ele>
        <time>2012-07-24T14:46:12Z</time>
      </trkpt>
      <trkpt lat="43.33937" lon="-0.3669">
        <ele>212.11</ele>
        <time>2012-07-24T14:46:43Z</time>
      </trkpt>
      <trkpt lat="43.33938" lon="-0.36676">
        <ele>212.11</ele>
        <time>2012-07-24T14:46:53Z</time>
      </trkpt>
      <trkpt lat="43.33935" lon="-0.36663">
        <ele>212.59</ele>
        <time>2012-07-24T14:47:03Z</time>
      </trkpt>
      <trkpt lat="43.33934" lon="-0.36652">
        <ele>212.59</ele>
        <time>2012-07-24T14:47:12Z</time>
      </trkpt>
      <trkpt lat="43.33931" lon="-0.36641">
        <ele>212.59</ele>
        <time>2012-07-24T14:47:22Z</time>
      </trkpt>
      <trkpt lat="43.33928" lon="-0.3663">
        <ele>212.11</ele>
        <time>2012-07-24T14:47:31Z</time>
      </trkpt>
      <trkpt lat="43.33926" lon="-0.36618">
        <ele>212.59</ele>
        <time>2012-07-24T14:47:40Z</time>
      </trkpt>
      <trkpt lat="43.33919" lon="-0.3661">
        <ele>209.7</ele>
        <time>2012-07-24T14:48:15Z</time>
      </trkpt>
      <trkpt lat="43.3391" lon="-0.36606">
        <ele>213.55</ele>
        <time>2012-07-24T14:48:24Z</time>
      </trkpt>
      <trkpt lat="43.33901" lon="-0.36599">
        <ele>214.03</ele>
        <time>2012-07-24T14:48:33Z</time>
      </trkpt>
      <trkpt lat="43.33893" lon="-0.36594">
        <ele>212.59</ele>
        <time>2012-07-24T14:48:42Z</time>
      </trkpt>
      <trkpt lat="43.33886" lon="-0.36587">
        <ele>213.55</ele>
        <time>2012-07-24T14:48:51Z</time>
      </trkpt>
      <trkpt lat="43.33876" lon="-0.36582">
        <ele>213.07</ele>
        <time>2012-07-24T14:49:02Z</time>
      </trkpt>
      <trkpt lat="43.33867" lon="-0.36579">
        <ele>213.07</ele>
        <time>2012-07-24T14:49:10Z</time>
      </trkpt>
      <trkpt lat="43.33862" lon="-0.36571">
        <ele>213.55</ele>
        <time>2012-07-24T14:49:25Z</time>
      </trkpt>
      <trkpt lat="43.3386" lon="-0.36543">
        <ele>213.55</ele>
        <time>2012-07-24T14:49:37Z</time>
      </trkpt>
      <trkpt lat="43.33857" lon="-0.36532">
        <ele>213.55</ele>
        <time>2012-07-24T14:49:48Z</time>
      </trkpt>
      <trkpt lat="43.33855" lon="-0.36519">
        <ele>213.55</ele>
        <time>2012-07-24T14:49:58Z</time>
      </trkpt>
      <trkpt lat="43.33852" lon="-0.36506">
        <ele>213.55</ele>
        <time>2012-07-24T14:50:06Z</time>
      </trkpt>
      <trkpt lat="43.33854" lon="-0.36474">
        <ele>213.55</ele>
        <time>2012-07-24T14:50:14Z</time>
      </trkpt>
      <trkpt lat="43.33835" lon="-0.36468">
        <ele>214.03</ele>
        <time>2012-07-24T14:50:23Z</time>
      </trkpt>
      <trkpt lat="43.33831" lon="-0.3646">
        <ele>214.03</ele>
        <time>2012-07-24T14:50:34Z</time>
      </trkpt>
      <trkpt lat="43.33828" lon="-0.36446">
        <ele>214.03</ele>
        <time>2012-07-24T14:50:44Z</time>
      </trkpt>
      <trkpt lat="43.33825" lon="-0.36435">
        <ele>214.51</ele>
        <time>2012-07-24T14:50:52Z</time>
      </trkpt>
      <trkpt lat="43.33822" lon="-0.36423">
        <ele>214.03</ele>
        <time>2012-07-24T14:51:00Z</time>
      </trkpt>
      <trkpt lat="43.33819" lon="-0.36411">
        <ele>214.03</ele>
        <time>2012-07-24T14:51:08Z</time>
      </trkpt>
      <trkpt lat="43.33816" lon="-0.36398">
        <ele>214.51</ele>
        <time>2012-07-24T14:51:17Z</time>
      </trkpt>
      <trkpt lat="43.33815" lon="-0.36385">
        <ele>214.51</ele>
        <time>2012-07-24T14:51:26Z</time>
      </trkpt>
      <trkpt lat="43.33812" lon="-0.36371">
        <ele>214.03</ele>
        <time>2012-07-24T14:51:35Z</time>
      </trkpt>
      <trkpt lat="43.33809" lon="-0.36358">
        <ele>214.03</ele>
        <time>2012-07-24T14:51:44Z</time>
      </trkpt>
      <trkpt lat="43.33802" lon="-0.36344">
        <ele>214.51</ele>
        <time>2012-07-24T14:51:56Z</time>
      </trkpt>
      <trkpt lat="43.33798" lon="-0.36332">
        <ele>214.51</ele>
        <time>2012-07-24T14:52:04Z</time>
      </trkpt>
      <trkpt lat="43.33794" lon="-0.3632">
        <ele>214.51</ele>
        <time>2012-07-24T14:52:11Z</time>
      </trkpt>
      <trkpt lat="43.3379" lon="-0.36308">
        <ele>214.03</ele>
        <time>2012-07-24T14:52:22Z</time>
      </trkpt>
      <trkpt lat="43.33787" lon="-0.36293">
        <ele>214.03</ele>
        <time>2012-07-24T14:52:32Z</time>
      </trkpt>
      <trkpt lat="43.33783" lon="-0.3628">
        <ele>214.03</ele>
        <time>2012-07-24T14:52:42Z</time>
      </trkpt>
      <trkpt lat="43.33779" lon="-0.36268">
        <ele>214.51</ele>
        <time>2012-07-24T14:52:50Z</time>
      </trkpt>
      <trkpt lat="43.33775" lon="-0.36253">
        <ele>214.03</ele>
        <time>2012-07-24T14:53:02Z</time>
      </trkpt>
      <trkpt lat="43.33771" lon="-0.36242">
        <ele>214.51</ele>
        <time>2012-07-24T14:53:09Z</time>
      </trkpt>
      <trkpt lat="43.33763" lon="-0.36247">
        <ele>214.51</ele>
        <time>2012-07-24T14:53:18Z</time>
      </trkpt>
      <trkpt lat="43.33758" lon="-0.36241">
        <ele>214.51</ele>
        <time>2012-07-24T14:53:29Z</time>
      </trkpt>
      <trkpt lat="43.33754" lon="-0.36233">
        <ele>214.51</ele>
        <time>2012-07-24T14:54:11Z</time>
      </trkpt>
      <trkpt lat="43.33755" lon="-0.3622">
        <ele>216.91</ele>
        <time>2012-07-24T14:54:38Z</time>
      </trkpt>
      <trkpt lat="43.33749" lon="-0.36216">
        <ele>215.95</ele>
        <time>2012-07-24T14:55:13Z</time>
      </trkpt>
      <trkpt lat="43.3374" lon="-0.36219">
        <ele>215.95</ele>
        <time>2012-07-24T14:55:20Z</time>
      </trkpt>
      <trkpt lat="43.33729" lon="-0.36222">
        <ele>216.91</ele>
        <time>2012-07-24T14:55:28Z</time>
      </trkpt>
      <trkpt lat="43.33721" lon="-0.36228">
        <ele>217.4</ele>
        <time>2012-07-24T14:55:37Z</time>
      </trkpt>
      <trkpt lat="43.33713" lon="-0.36235">
        <ele>218.36</ele>
        <time>2012-07-24T14:55:46Z</time>
      </trkpt>
      <trkpt lat="43.33704" lon="-0.36239">
        <ele>218.84</ele>
        <time>2012-07-24T14:55:53Z</time>
      </trkpt>
      <trkpt lat="43.33693" lon="-0.36247">
        <ele>219.8</ele>
        <time>2012-07-24T14:56:03Z</time>
      </trkpt>
      <trkpt lat="43.33686" lon="-0.36252">
        <ele>220.28</ele>
        <time>2012-07-24T14:56:12Z</time>
      </trkpt>
      <trkpt lat="43.33676" lon="-0.36256">
        <ele>221.24</ele>
        <time>2012-07-24T14:56:27Z</time>
      </trkpt>
      <trkpt lat="43.33667" lon="-0.36261">
        <ele>221.72</ele>
        <time>2012-07-24T14:56:35Z</time>
      </trkpt>
      <trkpt lat="43.33658" lon="-0.3627">
        <ele>222.68</ele>
        <time>2012-07-24T14:56:49Z</time>
      </trkpt>
      <trkpt lat="43.33637" lon="-0.36286">
        <ele>222.68</ele>
        <time>2012-07-24T14:56:59Z</time>
      </trkpt>
      <trkpt lat="43.3362" lon="-0.36294">
        <ele>223.16</ele>
        <time>2012-07-24T14:57:08Z</time>
      </trkpt>
      <trkpt lat="43.3361" lon="-0.36302">
        <ele>222.68</ele>
        <time>2012-07-24T14:57:17Z</time>
      </trkpt>
      <trkpt lat="43.33601" lon="-0.36305">
        <ele>223.16</ele>
        <time>2012-07-24T14:57:25Z</time>
      </trkpt>
      <trkpt lat="43.33592" lon="-0.36308">
        <ele>223.16</ele>
        <time>2012-07-24T14:57:34Z</time>
      </trkpt>
      <trkpt lat="43.3358" lon="-0.36318">
        <ele>222.68</ele>
        <time>2012-07-24T14:57:47Z</time>
      </trkpt>
      <trkpt lat="43.3357" lon="-0.36319">
        <ele>222.2</ele>
        <time>2012-07-24T14:57:57Z</time>
      </trkpt>
      <trkpt lat="43.33561" lon="-0.36322">
        <ele>222.2</ele>
        <time>2012-07-24T14:58:05Z</time>
      </trkpt>
      <trkpt lat="43.33553" lon="-0.36329">
        <ele>221.24</ele>
        <time>2012-07-24T14:58:14Z</time>
      </trkpt>
      <trkpt lat="43.33543" lon="-0.36335">
        <ele>221.24</ele>
        <time>2012-07-24T14:58:24Z</time>
      </trkpt>
      <trkpt lat="43.33535" lon="-0.36342">
        <ele>220.28</ele>
        <time>2012-07-24T14:58:34Z</time>
      </trkpt>
      <trkpt lat="43.33527" lon="-0.3635">
        <ele>219.32</ele>
        <time>2012-07-24T14:58:44Z</time>
      </trkpt>
      <trkpt lat="43.33516" lon="-0.3637">
        <ele>218.36</ele>
        <time>2012-07-24T14:58:54Z</time>
      </trkpt>
      <trkpt lat="43.33519" lon="-0.36391">
        <ele>218.36</ele>
        <time>2012-07-24T14:59:33Z</time>
      </trkpt>
    </trkseg>
  </trk>
</gpx>